createdAt,value
2022-08-17T00:00:01.041Z,27.65
2022-08-17T00:02:27.786Z,28.92
2022-08-17T00:04:55.489Z,31.00
2022-08-17T00:07:23.017Z,29.17
2022-08-17T00:09:49.792Z,29.13
2022-08-17T00:12:43.445Z,31.35
2022-08-17T00:15:04.832Z,28.60
2022-08-17T00:17:31.549Z,27.38
2022-08-17T00:19:58.314Z,26.10
2022-08-17T00:22:31.396Z,26.17
2022-08-17T00:25:07.458Z,27.27
2022-08-17T00:27:34.650Z,30.50
2022-08-17T00:30:01.562Z,27.00
2022-08-17T00:33:13.640Z,28.15
2022-08-17T00:35:17.652Z,27.17
2022-08-17T00:37:44.659Z,26.33
2022-08-17T00:40:14.522Z,25.70
2022-08-17T00:42:42.558Z,25.33
2022-08-17T00:45:12.852Z,24.65
2022-08-17T00:47:40.112Z,22.88
2022-08-17T00:50:11.271Z,25.00
2022-08-17T00:52:47.397Z,25.30
2022-08-17T00:55:14.893Z,24.42
2022-08-17T00:57:51.249Z,25.15
2022-08-17T01:00:26.718Z,24.60
2022-08-17T01:03:00.173Z,22.02
2022-08-17T01:05:30.778Z,24.83
2022-08-17T01:08:00.035Z,23.23
2022-08-17T01:11:00.380Z,23.42
2022-08-17T01:13:41.184Z,24.02
2022-08-17T01:16:26.151Z,21.67
2022-08-17T01:19:00.193Z,22.70
2022-08-17T01:21:30.383Z,21.70
2022-08-17T01:23:57.237Z,23.48
2022-08-17T01:26:24.422Z,23.63
2022-08-17T01:28:55.423Z,23.45
2022-08-17T01:31:24.647Z,22.45
2022-08-17T01:36:18.189Z,25.50
2022-08-17T01:38:44.888Z,22.48
2022-08-17T01:41:15.510Z,21.48
2022-08-17T01:43:50.919Z,23.38
2022-08-17T01:46:23.379Z,22.38
2022-08-17T01:48:51.141Z,21.75
2022-08-17T01:51:18.439Z,24.40
2022-08-17T01:53:49.505Z,24.65
2022-08-17T01:56:19.780Z,22.95
2022-08-17T01:58:46.720Z,23.98
2022-08-17T02:01:20.336Z,24.27
2022-08-17T02:03:53.438Z,24.40
2022-08-17T02:06:28.878Z,22.33
2022-08-17T02:09:02.291Z,23.08
2022-08-17T02:11:33.119Z,25.27
2022-08-17T02:14:02.476Z,25.88
2022-08-17T02:16:37.182Z,28.63
2022-08-17T02:19:07.871Z,25.70
2022-08-17T02:21:35.980Z,26.15
2022-08-17T02:24:04.164Z,23.95
2022-08-17T02:26:30.920Z,25.92
2022-08-17T02:28:57.663Z,26.02
2022-08-17T02:31:24.805Z,26.70
2022-08-17T02:34:00.411Z,24.95
2022-08-17T02:36:33.722Z,27.55
2022-08-17T02:39:02.785Z,28.23
2022-08-17T02:41:30.395Z,24.80
2022-08-17T02:43:57.533Z,24.50
2022-08-17T02:46:24.663Z,24.70
2022-08-17T02:48:51.843Z,27.35
2022-08-17T02:51:18.606Z,24.88
2022-08-17T02:53:46.660Z,27.48
2022-08-17T02:56:13.570Z,27.75
2022-08-17T02:58:40.708Z,24.83
2022-08-17T03:01:09.824Z,26.30
2022-08-17T03:03:37.648Z,25.83
2022-08-17T03:06:04.962Z,25.48
2022-08-17T03:08:31.851Z,21.35
2022-08-17T03:10:58.937Z,22.33
2022-08-17T03:13:27.152Z,20.73
2022-08-17T03:15:53.932Z,21.70
2022-08-17T03:18:24.448Z,21.15
2022-08-17T03:20:55.530Z,18.88
2022-08-17T03:23:23.985Z,17.40
2022-08-17T03:25:53.830Z,18.33
2022-08-17T03:28:22.122Z,20.95
2022-08-17T03:30:49.508Z,18.23
2022-08-17T03:33:16.820Z,17.95
2022-08-17T03:35:43.940Z,17.38
2022-08-17T03:38:12.492Z,17.00
2022-08-17T03:40:57.031Z,18.80
2022-08-17T03:43:30.554Z,17.95
2022-08-17T03:46:28.340Z,17.38
2022-08-17T03:49:19.547Z,15.80
2022-08-17T03:52:05.450Z,19.67
2022-08-17T03:54:50.790Z,19.50
2022-08-17T03:57:18.403Z,19.02
2022-08-17T03:59:45.349Z,15.20
2022-08-17T04:02:31.233Z,16.25
2022-08-17T04:04:58.962Z,16.50
2022-08-17T04:07:29.279Z,17.38
2022-08-17T04:09:57.771Z,14.10
2022-08-17T04:12:25.260Z,14.45
2022-08-17T04:14:54.606Z,14.60
2022-08-17T04:17:27.634Z,16.23
2022-08-17T04:19:55.334Z,17.60
2022-08-17T04:22:30.626Z,16.67
2022-08-17T04:25:02.481Z,17.10
2022-08-17T04:29:56.381Z,17.10
2022-08-17T04:32:58.333Z,19.27
2022-08-17T04:35:10.174Z,18.73
2022-08-17T04:37:36.936Z,18.85
2022-08-17T04:40:23.163Z,24.33
2022-08-17T04:43:12.700Z,18.05
2022-08-17T04:45:44.161Z,18.95
2022-08-17T04:48:23.132Z,21.83
2022-08-17T04:50:54.850Z,23.50
2022-08-17T04:53:22.020Z,25.25
2022-08-17T04:55:49.285Z,26.38
2022-08-17T04:58:16.003Z,23.88
2022-08-17T05:00:42.692Z,22.05
2022-08-17T05:03:09.781Z,24.30
2022-08-17T05:05:39.149Z,22.15
2022-08-17T05:08:06.971Z,22.48
2022-08-17T05:10:36.945Z,22.83
2022-08-17T05:13:09.416Z,21.63
2022-08-17T05:15:38.972Z,19.02
2022-08-17T05:18:12.749Z,20.67
2022-08-17T05:20:40.710Z,19.65
2022-08-17T05:23:11.635Z,18.20
2022-08-17T05:25:41.026Z,18.92
2022-08-17T05:28:09.090Z,19.63
2022-08-17T05:30:37.078Z,16.33
2022-08-17T05:33:10.673Z,19.33
2022-08-17T05:35:39.575Z,16.75
2022-08-17T05:38:07.973Z,16.77
2022-08-17T05:40:35.595Z,15.32
2022-08-17T05:43:11.603Z,13.05
2022-08-17T05:46:15.589Z,10.02
2022-08-17T05:48:51.496Z,11.57
2022-08-17T05:51:55.595Z,10.52
2022-08-17T05:54:52.512Z,10.88
2022-08-17T05:57:43.559Z,9.65
2022-08-17T06:00:30.353Z,10.27
2022-08-17T06:03:23.038Z,10.35
2022-08-17T06:06:16.895Z,11.80
2022-08-17T06:08:55.792Z,9.77
2022-08-17T06:12:00.785Z,9.80
2022-08-17T06:14:58.774Z,9.10
2022-08-17T06:17:27.353Z,9.40
2022-08-17T06:20:00.214Z,10.70
2022-08-17T06:22:33.248Z,11.65
2022-08-17T06:25:27.966Z,11.40
2022-08-17T06:28:08.353Z,10.80
2022-08-17T06:30:59.583Z,11.13
2022-08-17T06:33:35.079Z,12.60
2022-08-17T06:36:14.609Z,11.73
2022-08-17T06:39:08.594Z,13.25
2022-08-17T06:43:04.982Z,13.90
2022-08-17T06:45:13.633Z,12.32
2022-08-17T06:47:49.297Z,12.70
2022-08-17T06:50:35.873Z,13.98
2022-08-17T06:53:38.197Z,13.48
2022-08-17T06:56:10.530Z,13.27
2022-08-17T06:58:40.396Z,13.93
2022-08-17T07:01:14.848Z,15.48
2022-08-17T07:03:59.010Z,13.77
2022-08-17T07:06:47.516Z,15.10
2022-08-17T07:09:36.005Z,15.25
2022-08-17T07:12:16.207Z,14.23
2022-08-17T07:15:22.800Z,18.33
2022-08-17T07:17:49.976Z,18.92
2022-08-17T07:20:23.030Z,21.40
2022-08-17T07:23:04.988Z,16.13
2022-08-17T07:25:32.968Z,16.65
2022-08-17T07:28:06.024Z,17.50
2022-08-17T07:30:45.754Z,15.65
2022-08-17T07:33:30.885Z,14.13
2022-08-17T07:35:58.285Z,15.95
2022-08-17T07:38:28.308Z,13.50
2022-08-17T07:40:58.226Z,14.32
2022-08-17T07:43:29.612Z,20.35
2022-08-17T07:46:35.050Z,15.20
2022-08-17T07:49:07.358Z,15.13
2022-08-17T07:51:39.621Z,13.50
2022-08-17T07:54:15.570Z,15.10
2022-08-17T07:56:47.068Z,13.48
2022-08-17T07:59:23.701Z,17.50
2022-08-17T08:01:57.599Z,15.30
2022-08-17T08:04:59.633Z,17.42
2022-08-17T08:07:34.554Z,15.40
2022-08-17T08:10:13.711Z,15.10
2022-08-17T08:13:01.027Z,17.25
2022-08-17T08:18:05.037Z,15.90
2022-08-17T08:20:56.468Z,14.20
2022-08-17T08:23:37.221Z,18.73
2022-08-17T08:26:28.341Z,16.88
2022-08-17T08:29:14.175Z,13.88
2022-08-17T08:32:10.954Z,13.73
2022-08-17T08:35:02.046Z,12.73
2022-08-17T08:38:00.754Z,11.73
2022-08-17T08:40:33.472Z,15.25
2022-08-17T08:43:18.910Z,11.98
2022-08-17T08:45:57.744Z,13.18
2022-08-17T08:50:01.317Z,13.68
2022-08-17T08:52:34.901Z,10.43
2022-08-17T08:55:23.421Z,12.70
2022-08-17T08:58:00.660Z,11.02
2022-08-17T09:00:29.248Z,12.50
2022-08-17T09:03:31.741Z,12.52
2022-08-17T09:06:49.569Z,12.57
2022-08-17T09:09:22.210Z,11.18
2022-08-17T09:12:07.739Z,11.02
2022-08-17T09:15:16.754Z,12.32
2022-08-17T09:18:03.531Z,9.52
2022-08-17T09:20:57.176Z,11.00
2022-08-17T09:23:45.095Z,12.32
2022-08-17T09:26:27.974Z,10.45
2022-08-17T09:29:01.381Z,10.55
2022-08-17T09:31:46.410Z,10.80
2022-08-17T09:34:21.961Z,12.05
2022-08-17T09:37:28.105Z,16.90
2022-08-17T09:40:06.869Z,15.45
2022-08-17T09:42:47.410Z,15.05
2022-08-17T09:45:32.068Z,14.15
2022-08-17T09:48:14.273Z,12.77
2022-08-17T09:51:05.942Z,13.73
2022-08-17T09:53:36.190Z,13.43
2022-08-17T09:56:03.338Z,13.38
2022-08-17T09:58:37.457Z,11.52
2022-08-17T10:01:21.016Z,12.38
2022-08-17T10:04:29.543Z,13.30
2022-08-17T10:07:06.242Z,12.32
2022-08-17T10:09:59.913Z,10.75
2022-08-17T10:12:47.179Z,12.70
2022-08-17T10:18:03.803Z,12.20
2022-08-17T10:20:45.211Z,14.07
2022-08-17T10:23:40.536Z,12.35
2022-08-17T10:26:18.659Z,13.73
2022-08-17T10:29:05.033Z,11.13
2022-08-17T10:31:46.179Z,12.77
2022-08-17T10:37:21.217Z,10.93
2022-08-17T10:40:10.916Z,12.73
2022-08-17T10:42:51.334Z,13.60
2022-08-17T10:45:37.702Z,14.10
2022-08-17T10:48:07.686Z,15.10
2022-08-17T10:50:49.448Z,14.85
2022-08-17T10:53:31.476Z,16.63
2022-08-17T10:56:13.627Z,14.25
2022-08-17T10:58:50.841Z,15.93
2022-08-17T11:01:18.222Z,16.08
2022-08-17T11:03:55.365Z,16.73
2022-08-17T11:06:32.059Z,14.45
2022-08-17T11:09:27.496Z,15.93
2022-08-17T11:12:22.065Z,15.25
2022-08-17T11:15:17.968Z,15.80
2022-08-17T11:18:05.918Z,18.52
2022-08-17T11:20:51.877Z,20.77
2022-08-17T11:23:45.377Z,21.20
2022-08-17T11:28:59.946Z,19.17
2022-08-17T11:31:37.912Z,22.90
2022-08-17T11:34:08.483Z,19.48
2022-08-17T11:36:48.455Z,17.95
2022-08-17T11:39:29.985Z,19.05
2022-08-17T11:42:25.487Z,20.67
2022-08-17T11:45:03.176Z,19.17
2022-08-17T11:48:26.591Z,22.23
2022-08-17T11:51:24.667Z,21.25
2022-08-17T11:54:03.588Z,24.20
2022-08-17T11:56:41.466Z,23.10
2022-08-17T11:59:30.594Z,26.98
2022-08-17T12:01:57.547Z,22.60
2022-08-17T12:04:28.962Z,22.77
2022-08-17T12:07:06.284Z,22.75
2022-08-17T12:09:39.161Z,24.42
2022-08-17T12:12:24.977Z,23.48
2022-08-17T12:15:12.666Z,24.00
2022-08-17T12:17:42.668Z,22.52
2022-08-17T12:20:31.931Z,24.42
2022-08-17T12:23:04.358Z,27.65
2022-08-17T12:25:47.529Z,29.27
2022-08-17T12:28:29.062Z,26.77
2022-08-17T12:31:05.999Z,27.45
2022-08-17T12:33:35.792Z,27.42
2022-08-17T12:36:06.256Z,25.80
2022-08-17T12:38:35.988Z,24.73
2022-08-17T12:41:24.952Z,22.65
2022-08-17T12:44:12.216Z,27.48
2022-08-17T12:49:36.163Z,22.55
2022-08-17T12:52:07.969Z,25.35
2022-08-17T12:54:35.092Z,28.88
2022-08-17T12:57:08.933Z,22.45
2022-08-17T12:59:41.988Z,26.75
2022-08-17T13:02:23.680Z,26.13
2022-08-17T13:04:50.875Z,26.13
2022-08-17T13:07:42.386Z,27.35
2022-08-17T13:10:18.351Z,29.40
2022-08-17T13:12:45.167Z,28.45
2022-08-17T13:15:45.921Z,29.45
2022-08-17T13:18:54.579Z,30.25
2022-08-17T13:21:27.637Z,29.10
2022-08-17T13:24:17.181Z,29.27
2022-08-17T13:26:51.131Z,30.83
2022-08-17T13:29:19.292Z,31.08
2022-08-17T13:31:52.880Z,30.77
2022-08-17T13:34:29.427Z,30.23
2022-08-17T13:37:28.834Z,32.92
2022-08-17T13:40:00.019Z,35.50
2022-08-17T13:42:51.486Z,32.83
2022-08-17T13:45:35.878Z,28.35
2022-08-17T13:48:08.341Z,27.65
2022-08-17T13:50:46.107Z,26.95
2022-08-17T13:53:16.642Z,25.60
2022-08-17T13:56:00.678Z,31.42
2022-08-17T13:58:32.886Z,27.90
2022-08-17T14:01:35.848Z,29.83
2022-08-17T14:04:07.908Z,27.58
2022-08-17T14:06:53.427Z,28.00
2022-08-17T14:09:24.533Z,25.77
2022-08-17T14:11:53.939Z,28.10
2022-08-17T14:14:23.023Z,27.10
2022-08-17T14:16:50.817Z,27.92
2022-08-17T14:19:17.928Z,25.50
2022-08-17T14:21:46.365Z,28.92
2022-08-17T14:24:35.123Z,26.35
2022-08-17T14:27:03.535Z,28.70
2022-08-17T14:29:32.248Z,26.40
2022-08-17T14:32:04.247Z,25.33
2022-08-17T14:34:31.467Z,26.50
2022-08-17T14:36:58.509Z,27.13
2022-08-17T14:39:25.721Z,25.23
2022-08-17T14:41:52.962Z,27.27
2022-08-17T14:44:19.713Z,28.45
2022-08-17T14:46:47.896Z,25.58
2022-08-17T14:49:15.623Z,24.73
2022-08-17T14:51:44.200Z,21.88
2022-08-17T14:54:33.052Z,27.45
2022-08-17T14:57:22.374Z,26.38
2022-08-17T15:02:19.141Z,26.20
2022-08-17T15:04:47.621Z,22.20
2022-08-17T15:07:15.464Z,25.23
2022-08-17T15:09:42.372Z,23.75
2022-08-17T15:12:17.808Z,22.92
2022-08-17T15:14:45.517Z,22.88
2022-08-17T15:17:12.281Z,22.70
2022-08-17T15:19:38.997Z,24.45
2022-08-17T15:22:06.734Z,22.67
2022-08-17T15:24:33.887Z,25.00
2022-08-17T15:27:00.591Z,25.00
2022-08-17T15:29:27.260Z,21.63
2022-08-17T15:31:57.428Z,18.88
2022-08-17T15:34:27.237Z,19.17
2022-08-17T15:36:53.967Z,23.60
2022-08-17T15:39:22.004Z,23.90
2022-08-17T15:41:58.056Z,23.17
2022-08-17T15:44:32.514Z,20.50
2022-08-17T15:47:02.169Z,23.48
2022-08-17T15:49:29.572Z,21.27
2022-08-17T15:51:56.315Z,19.98
2022-08-17T15:54:23.604Z,23.95
2022-08-17T15:56:50.596Z,20.88
2022-08-17T15:59:17.343Z,19.92
2022-08-17T16:03:04.677Z,20.65
2022-08-17T16:04:31.780Z,19.98
2022-08-17T16:06:59.711Z,19.50
2022-08-17T16:09:26.630Z,19.52
2022-08-17T16:11:55.628Z,16.80
2022-08-17T16:14:24.101Z,17.95
2022-08-17T16:16:51.101Z,16.90
2022-08-17T16:19:18.248Z,16.65
2022-08-17T16:21:44.982Z,20.95
2022-08-17T16:24:13.104Z,17.42
2022-08-17T16:26:40.888Z,17.58
2022-08-17T16:29:08.791Z,19.20
2022-08-17T16:31:37.521Z,20.42
2022-08-17T16:34:17.899Z,21.65
2022-08-17T16:36:54.885Z,19.52
2022-08-17T16:39:24.050Z,22.35
2022-08-17T16:41:50.746Z,20.92
2022-08-17T16:44:21.699Z,24.70
2022-08-17T16:46:49.321Z,22.10
2022-08-17T16:49:35.426Z,23.23
2022-08-17T16:52:05.409Z,22.10
2022-08-17T16:54:33.385Z,23.40
2022-08-17T16:57:00.177Z,20.90
2022-08-17T16:59:30.342Z,24.30
2022-08-17T17:02:11.060Z,24.73
2022-08-17T17:04:45.746Z,24.60
2022-08-17T17:07:25.611Z,29.00
2022-08-17T17:09:55.375Z,27.58
2022-08-17T17:13:00.830Z,25.98
2022-08-17T17:15:10.800Z,28.77
2022-08-17T17:17:39.817Z,25.00
2022-08-17T17:22:58.650Z,25.25
2022-08-17T17:25:37.696Z,26.95
2022-08-17T17:28:24.847Z,26.67
2022-08-17T17:31:11.802Z,26.50
2022-08-17T17:33:43.451Z,29.50
2022-08-17T17:36:27.090Z,27.55
2022-08-17T17:39:00.031Z,29.13
2022-08-17T17:41:32.865Z,25.60
2022-08-17T17:44:07.454Z,26.08
2022-08-17T17:46:38.342Z,26.30
2022-08-17T17:49:06.109Z,25.88
2022-08-17T17:52:10.017Z,28.33
2022-08-17T17:54:55.712Z,26.98
2022-08-17T17:57:33.501Z,28.00
2022-08-17T18:00:25.607Z,27.92
2022-08-17T18:03:08.499Z,26.65
2022-08-17T18:05:57.390Z,26.00
2022-08-17T18:08:54.652Z,30.38
2022-08-17T18:11:25.025Z,30.50
2022-08-17T18:14:17.269Z,29.60
2022-08-17T18:16:46.364Z,31.63
2022-08-17T18:19:21.449Z,30.10
2022-08-17T18:24:42.681Z,31.17
2022-08-17T18:27:23.129Z,34.05
2022-08-17T18:29:52.854Z,33.35
2022-08-17T18:32:41.323Z,31.75
2022-08-17T18:35:14.212Z,33.25
2022-08-17T18:37:45.278Z,36.53
2022-08-17T18:40:18.329Z,35.88
2022-08-17T18:43:00.435Z,29.42
2022-08-17T18:45:48.067Z,31.67
2022-08-17T18:48:48.624Z,32.38
2022-08-17T18:51:43.331Z,29.52
2022-08-17T18:54:23.590Z,30.23
2022-08-17T18:56:56.195Z,30.13
2022-08-17T18:59:26.935Z,30.48
2022-08-17T19:01:59.203Z,33.88
2022-08-17T19:04:37.624Z,29.58
2022-08-17T19:07:24.357Z,30.42
2022-08-17T19:10:06.612Z,30.85
2022-08-17T19:12:40.624Z,28.67
2022-08-17T19:15:10.333Z,28.58
2022-08-17T19:18:06.710Z,29.45
2022-08-17T19:20:38.219Z,31.50
2022-08-17T19:23:29.020Z,29.40
2022-08-17T19:25:59.171Z,31.52
2022-08-17T19:28:48.908Z,30.25
2022-08-17T19:31:22.865Z,27.77
2022-08-17T19:33:50.401Z,34.30
2022-08-17T19:36:21.372Z,29.33
2022-08-17T19:39:14.278Z,30.88
2022-08-17T19:41:47.344Z,28.95
2022-08-17T19:44:39.020Z,29.92
2022-08-17T19:47:30.496Z,25.58
2022-08-17T19:50:16.134Z,30.45
2022-08-17T19:53:07.199Z,26.27
2022-08-17T19:55:56.137Z,28.38
2022-08-17T19:58:46.829Z,27.77
2022-08-17T20:01:20.559Z,30.52
2022-08-17T20:04:10.117Z,27.20
2022-08-17T20:06:40.015Z,30.23
2022-08-17T20:09:33.813Z,32.45
2022-08-17T20:12:18.087Z,29.60
2022-08-17T20:14:53.488Z,30.63
2022-08-17T20:17:24.899Z,27.50
2022-08-17T20:20:19.426Z,25.75
2022-08-17T20:23:11.327Z,26.17
2022-08-17T20:25:42.412Z,29.55
2022-08-17T20:28:23.788Z,30.65
2022-08-17T20:36:19.285Z,28.48
2022-08-17T20:38:56.567Z,26.95
2022-08-17T20:41:28.672Z,29.50
2022-08-17T20:43:55.770Z,23.65
2022-08-17T20:46:40.433Z,26.58
2022-08-17T20:49:31.133Z,29.85
2022-08-17T20:52:35.924Z,26.00
2022-08-17T20:55:04.330Z,27.38
2022-08-17T20:57:31.346Z,26.38
2022-08-17T21:00:16.411Z,28.48
2022-08-17T21:02:49.172Z,25.38
2022-08-17T21:05:34.744Z,26.17
2022-08-17T21:08:15.805Z,27.35
2022-08-17T21:10:45.396Z,24.80
2022-08-17T21:13:15.726Z,24.65
2022-08-17T21:15:49.753Z,21.17
2022-08-17T21:18:54.843Z,23.05
2022-08-17T21:21:39.392Z,21.08
2022-08-17T21:24:25.122Z,22.05
2022-08-17T21:27:09.918Z,24.67
2022-08-17T21:30:11.913Z,24.38
2022-08-17T21:32:42.023Z,23.05
2022-08-17T21:35:34.581Z,24.17
2022-08-17T21:38:13.791Z,21.92
2022-08-17T21:40:45.085Z,23.50
2022-08-17T21:43:32.335Z,19.77
2022-08-17T21:46:10.535Z,23.65
2022-08-17T21:48:42.934Z,20.65
2022-08-17T21:51:20.646Z,22.60
2022-08-17T21:54:11.601Z,19.67
2022-08-17T21:56:44.934Z,20.15
2022-08-17T21:59:32.834Z,18.63
2022-08-17T22:02:06.229Z,18.98
2022-08-17T22:04:36.262Z,17.45
2022-08-17T22:07:06.918Z,19.80
2022-08-17T22:09:48.860Z,18.02
2022-08-17T22:12:25.514Z,19.80
2022-08-17T22:15:05.874Z,17.10
2022-08-17T22:17:35.884Z,17.38
2022-08-17T22:20:17.390Z,18.05
2022-08-17T22:23:08.789Z,16.58
2022-08-17T22:25:39.528Z,18.67
2022-08-17T22:28:09.034Z,17.58
2022-08-17T22:30:40.228Z,17.52
2022-08-17T22:33:37.047Z,21.15
2022-08-17T22:36:25.164Z,17.80
2022-08-17T22:39:01.175Z,17.40
2022-08-17T22:41:47.006Z,16.90
2022-08-17T22:44:14.087Z,17.77
2022-08-17T22:47:02.746Z,17.52
2022-08-17T22:49:56.354Z,16.77
2022-08-17T22:55:34.862Z,16.95
2022-08-17T22:58:27.753Z,22.77
2022-08-17T23:00:54.973Z,17.80
2022-08-17T23:03:25.939Z,16.95
2022-08-17T23:06:06.416Z,16.92
2022-08-17T23:08:35.665Z,17.73
2022-08-17T23:11:03.003Z,18.63
2022-08-17T23:13:33.255Z,17.65
2022-08-17T23:16:00.421Z,16.30
2022-08-17T23:18:27.301Z,16.17
2022-08-17T23:20:54.361Z,18.08
2022-08-17T23:23:23.898Z,17.50
2022-08-17T23:25:50.764Z,18.35
2022-08-17T23:28:18.045Z,16.30
2022-08-17T23:30:48.344Z,17.80
2022-08-17T23:33:30.182Z,21.33
2022-08-17T23:35:58.744Z,20.08
2022-08-17T23:38:27.074Z,20.30
2022-08-17T23:40:54.519Z,18.35
2022-08-17T23:43:25.393Z,19.60
2022-08-17T23:45:55.255Z,19.75
2022-08-17T23:48:36.290Z,17.63
2022-08-17T23:51:10.166Z,18.70
2022-08-17T23:53:38.978Z,20.33
2022-08-17T23:56:10.317Z,19.65
2022-08-17T23:58:40.185Z,19.02
